Airport View

Enter AWOS ICAO identifier for current METAR.

ex. KFNL

KPSO 142235Z AUTO 16005KT 10SM VCTS CLR 10/M09 A3036 RMK AO2 T00961091

14 Nov 2018 22:43

Frequency: 127.175

Phone: 970-731-0365

Other Area AWOS: KCPW - KDRO - KRCV - KTEX

TAF KALS 141722Z 1418/1518 VRB05KT P6SM SCT250